Time;durP1;ratioP1;P1;durP2;ratioP2;P2;SDS_P1;SDS_P2;PMS_P1;PMS_P2;Temp;Humidity;BMP_temperature;BMP_pressure;BME280_temperature;BME280_humidity;BME280_pressure;Samples;Min_cycle;Max_cycle;Signal;HPM_P1;HPM_P2
2024/04/03 00:02:23;;;;;;;1.38;0.70;;;;;;;10.03;100.00;99220.22;5039135;28;20041;-75
2024/04/03 00:04:49;;;;;;;4.85;1.17;;;;;;;10.05;100.00;99221.50;5015426;28;20037;-75
2024/04/03 00:07:14;;;;;;;2.42;0.80;;;;;;;10.06;100.00;99223.16;5008835;28;20044;-75
2024/04/03 00:09:40;;;;;;;3.03;0.90;;;;;;;10.09;100.00;99223.66;5042538;28;20032;-75
2024/04/03 00:12:06;;;;;;;3.25;0.93;;;;;;;10.05;100.00;99220.69;5026763;28;20032;-75
2024/04/03 00:14:31;;;;;;;3.53;1.08;;;;;;;10.08;100.00;99211.72;5059088;28;20032;-75
2024/04/03 00:16:57;;;;;;;2.97;0.73;;;;;;;10.10;100.00;99205.88;5075373;28;20527;-75
2024/04/03 00:19:23;;;;;;;2.25;0.70;;;;;;;10.09;100.00;99204.25;4994793;28;20044;-75
2024/04/03 00:21:50;;;;;;;3.53;0.63;;;;;;;10.07;100.00;99199.00;5028112;28;20036;-75
2024/04/03 00:24:16;;;;;;;3.00;0.73;;;;;;;10.08;100.00;99203.41;5051565;28;20040;-75
2024/04/03 00:26:41;;;;;;;2.13;0.57;;;;;;;10.11;100.00;99210.25;5041159;28;20040;-75
2024/04/03 00:29:08;;;;;;;2.83;0.57;;;;;;;10.14;100.00;99204.06;5042104;28;20036;-75
2024/04/03 00:31:34;;;;;;;2.78;0.60;;;;;;;10.14;100.00;99206.84;5024323;28;20661;-75
2024/04/03 00:33:59;;;;;;;3.35;0.82;;;;;;;10.15;100.00;99198.19;5026044;28;20055;-75
2024/04/03 00:36:25;;;;;;;2.53;0.88;;;;;;;10.15;100.00;99203.75;5042583;28;20094;-74
2024/04/03 00:38:50;;;;;;;3.92;0.73;;;;;;;10.12;100.00;99200.81;5009281;28;20043;-75
2024/04/03 00:41:15;;;;;;;2.45;0.75;;;;;;;10.17;100.00;99211.72;5025352;28;20037;-75
2024/04/03 00:43:41;;;;;;;8.88;0.88;;;;;;;10.17;100.00;99203.41;5075650;28;20032;-75
2024/04/03 00:46:06;;;;;;;2.45;0.60;;;;;;;10.19;100.00;99198.38;5012626;28;20064;-75
2024/04/03 00:48:32;;;;;;;3.90;0.77;;;;;;;10.15;100.00;99197.38;5024862;28;20029;-75
2024/04/03 00:50:57;;;;;;;4.18;0.68;;;;;;;10.15;100.00;99197.38;5057427;28;20036;-75
2024/04/03 00:53:23;;;;;;;3.78;0.80;;;;;;;10.18;100.00;99191.19;5041287;28;20028;-74
2024/04/03 00:55:49;;;;;;;5.03;0.73;;;;;;;10.14;100.00;99193.81;5023940;28;20091;-75
2024/04/03 00:58:14;;;;;;;5.72;0.90;;;;;;;10.16;100.00;99188.72;5039132;28;20083;-75
2024/04/03 01:00:40;;;;;;;4.65;0.73;;;;;;;10.16;100.00;99191.50;5021732;28;20033;-75
2024/04/03 01:03:05;;;;;;;4.75;0.70;;;;;;;10.17;100.00;99190.38;5055021;28;20052;-74
2024/04/03 01:05:31;;;;;;;7.60;1.00;;;;;;;10.18;100.00;99182.88;5013119;28;20040;-75
2024/04/03 01:07:57;;;;;;;3.58;0.80;;;;;;;10.17;100.00;99178.44;5041615;28;20556;-75
2024/04/03 01:10:22;;;;;;;6.43;0.70;;;;;;;10.18;100.00;99175.34;5024459;28;20730;-75
2024/04/03 01:12:49;;;;;;;5.88;0.82;;;;;;;10.16;100.00;99163.75;5041832;28;20381;-75
2024/04/03 01:15:14;;;;;;;6.05;0.88;;;;;;;10.16;100.00;99169.31;5040115;28;20370;-75
2024/04/03 01:17:40;;;;;;;9.75;1.17;;;;;;;10.17;100.00;99161.78;5008193;28;20043;-75
2024/04/03 01:20:06;;;;;;;4.63;0.80;;;;;;;10.14;100.00;99168.00;5024209;28;20032;-75
2024/04/03 01:22:32;;;;;;;2.33;0.70;;;;;;;10.14;100.00;99166.06;5041372;28;20093;-75
2024/04/03 01:24:58;;;;;;;4.30;1.10;;;;;;;10.15;100.00;99158.56;5040745;28;20115;-75
2024/04/03 01:27:24;;;;;;;3.83;0.90;;;;;;;10.17;100.00;99156.25;5024114;28;20035;-75
2024/04/03 01:29:49;;;;;;;4.30;0.88;;;;;;;10.15;100.00;99162.13;5040437;28;20115;-75
2024/04/03 01:32:15;;;;;;;5.78;1.25;;;;;;;10.15;100.00;99158.56;5023140;28;20071;-75
2024/04/03 01:34:40;;;;;;;3.92;1.05;;;;;;;10.11;100.00;99152.00;5039235;28;20044;-75
2024/04/03 01:37:07;;;;;;;4.57;1.10;;;;;;;10.13;100.00;99155.28;5075367;28;20044;-75
2024/04/03 01:39:33;;;;;;;3.15;0.80;;;;;;;10.14;100.00;99151.34;5039827;28;20040;-74
2024/04/03 01:41:59;;;;;;;4.63;1.35;;;;;;;10.15;100.00;99151.03;5057223;28;20043;-75
2024/04/03 01:44:24;;;;;;;6.32;0.73;;;;;;;10.13;100.00;99133.91;5039957;28;20040;-75
2024/04/03 01:46:49;;;;;;;6.18;0.98;;;;;;;10.16;100.00;99143.53;5024091;28;20032;-75
2024/04/03 01:49:15;;;;;;;4.05;1.17;;;;;;;10.15;100.00;99142.72;5039644;28;20036;-74
2024/04/03 01:51:40;;;;;;;6.63;1.08;;;;;;;10.12;100.00;99137.00;5041355;28;20039;-75
2024/04/03 01:54:06;;;;;;;8.82;1.38;;;;;;;10.16;100.00;99132.44;5055321;28;20040;-75
2024/04/03 01:56:31;;;;;;;6.68;0.90;;;;;;;10.16;100.00;99132.44;5033795;28;20037;-75
2024/04/03 01:58:57;;;;;;;3.40;1.05;;;;;;;10.17;100.00;99134.06;5059626;28;20036;-75
2024/04/03 02:01:22;;;;;;;9.00;2.13;;;;;;;10.17;100.00;99134.91;5039560;28;20044;-75
2024/04/03 02:03:48;;;;;;;9.18;1.38;;;;;;;10.17;100.00;99134.91;5003997;28;20051;-75
2024/04/03 02:06:13;;;;;;;5.47;1.30;;;;;;;10.18;100.00;99142.06;5073182;28;20032;-74
2024/04/03 02:08:39;;;;;;;6.68;1.38;;;;;;;10.18;100.00;99138.47;5062788;28;20043;-75
2024/04/03 02:11:04;;;;;;;7.93;1.38;;;;;;;10.18;100.00;99136.50;5081986;28;20032;-75
2024/04/03 02:13:29;;;;;;;7.22;1.20;;;;;;;10.17;100.00;99134.06;5046656;28;20040;-75
2024/04/03 02:15:55;;;;;;;8.88;1.35;;;;;;;10.19;100.00;99129.00;5030758;28;20040;-75
2024/04/03 02:18:21;;;;;;;5.90;1.17;;;;;;;10.18;100.00;99136.50;5030452;28;20098;-75
2024/04/03 02:20:47;;;;;;;7.90;1.05;;;;;;;10.20;100.00;99136.19;5031149;28;20504;-75
2024/04/03 02:23:13;;;;;;;5.22;1.27;;;;;;;10.19;100.00;99131.78;5021671;28;20086;-75
2024/04/03 02:25:39;;;;;;;7.10;1.10;;;;;;;10.19;100.00;99143.69;5047342;28;20694;-75
2024/04/03 02:28:05;;;;;;;7.78;1.20;;;;;;;10.20;100.00;99150.06;5030726;28;20089;-75
2024/04/03 02:30:30;;;;;;;6.68;1.02;;;;;;;10.20;100.00;99158.41;5030974;28;20119;-75
2024/04/03 02:32:56;;;;;;;6.47;1.20;;;;;;;10.22;100.00;99153.31;5029584;28;20029;-75
2024/04/03 02:35:21;;;;;;;6.70;1.05;;;;;;;10.21;100.00;99154.47;5047327;28;20044;-75
2024/04/03 02:37:46;;;;;;;7.82;1.48;;;;;;;10.21;100.00;99154.47;5068594;28;20051;-74
2024/04/03 02:40:12;;;;;;;8.00;1.42;;;;;;;10.22;100.00;99142.22;5031384;28;20123;-75
2024/04/03 02:42:38;;;;;;;3.90;1.13;;;;;;;10.21;100.00;99152.50;5063162;28;20048;-75
2024/04/03 02:45:03;;;;;;;7.43;1.50;;;;;;;10.21;100.00;99162.78;5063576;28;20113;-75
2024/04/03 02:47:30;;;;;;;8.73;1.67;;;;;;;10.23;100.00;99149.41;5078470;28;20441;-75
2024/04/03 02:49:55;;;;;;;3.63;1.20;;;;;;;10.20;100.00;99161.97;5081772;28;20098;-75
2024/04/03 02:52:21;;;;;;;12.80;2.05;;;;;;;10.18;100.00;99146.81;5030192;28;20036;-75
2024/04/03 02:54:46;;;;;;;6.50;1.38;;;;;;;10.18;100.00;99147.63;5031240;28;20040;-75
2024/04/03 02:57:12;;;;;;;9.60;1.42;;;;;;;10.22;100.00;99145.00;5017936;28;20040;-75
2024/04/03 02:59:37;;;;;;;7.55;1.15;;;;;;;10.19;100.00;99149.22;5053214;28;20036;-75
2024/04/03 03:02:03;;;;;;;5.78;1.08;;;;;;;10.21;100.00;99135.06;5029335;28;20036;-75
2024/04/03 03:04:41;;;;;;;9.50;1.38;;;;;;;10.19;100.00;99138.13;5014171;28;20127;-74
2024/04/03 03:07:10;;;;;;;4.55;0.80;;;;;;;10.20;100.00;99139.78;5032302;28;20366;-75
2024/04/03 03:09:36;;;;;;;5.32;1.40;;;;;;;10.17;100.00;99134.91;5014516;28;20039;-75
2024/04/03 03:12:04;;;;;;;7.35;1.10;;;;;;;10.16;100.00;99129.66;5047451;28;20506;-75
2024/04/03 03:14:30;;;;;;;6.50;1.50;;;;;;;10.15;100.00;99130.81;5047300;28;20097;-74
2024/04/03 03:16:57;;;;;;;9.15;1.45;;;;;;;10.12;100.00;99137.81;5042967;28;20033;-74
2024/04/03 03:19:22;;;;;;;10.73;1.80;;;;;;;10.12;100.00;99135.03;5060741;28;20099;-75
2024/04/03 03:21:48;;;;;;;6.30;1.47;;;;;;;10.09;100.00;99132.13;5072732;28;20689;-74
2024/04/03 03:24:13;;;;;;;7.57;1.58;;;;;;;10.05;100.00;99143.00;5043783;28;20040;-75
2024/04/03 03:26:39;;;;;;;8.25;1.48;;;;;;;10.07;100.00;99141.56;5026587;28;20118;-74
2024/04/03 03:29:04;;;;;;;7.47;1.50;;;;;;;10.07;100.00;99132.41;5059754;28;20036;-74
2024/04/03 03:31:30;;;;;;;11.48;1.25;;;;;;;10.06;100.00;99120.50;5069439;28;20048;-74
2024/04/03 03:33:55;;;;;;;7.05;1.70;;;;;;;10.03;100.00;99135.03;5078468;28;20055;-75
2024/04/03 03:36:20;;;;;;;6.18;1.40;;;;;;;10.02;100.00;99132.56;5078372;28;20060;-75
2024/04/03 03:38:46;;;;;;;10.20;2.08;;;;;;;9.99;100.00;99139.59;5078282;28;20238;-74
2024/04/03 03:41:11;;;;;;;8.02;1.50;;;;;;;9.99;100.00;99139.59;5078220;28;20037;-74
2024/04/03 03:43:37;;;;;;;12.63;2.25;;;;;;;9.99;100.00;99136.00;5043581;28;20040;-75
2024/04/03 03:46:02;;;;;;;11.45;1.60;;;;;;;9.95;100.00;99138.59;5029316;28;20507;-75
2024/04/03 03:54:02;;;;;;;11.75;1.70;;;;;;;9.89;100.00;99139.91;5046154;28;20468;-75
2024/04/03 03:56:28;;;;;;;15.85;2.22;;;;;;;9.86;100.00;99143.31;5008753;28;20477;-75
2024/04/03 03:58:53;;;;;;;11.90;2.00;;;;;;;9.85;100.00;99147.22;5043028;28;20070;-74
2024/04/03 04:01:19;;;;;;;12.95;2.40;;;;;;;9.81;100.00;99152.59;5069486;28;20048;-75
2024/04/03 04:03:45;;;;;;;15.02;2.30;;;;;;;9.82;100.00;99140.38;5026674;28;20400;-75
2024/04/03 04:06:10;;;;;;;13.60;1.88;;;;;;;9.82;100.00;99147.88;5060041;28;20107;-75
2024/04/03 04:08:36;;;;;;;10.75;2.10;;;;;;;9.82;100.00;99143.13;5026638;28;20037;-75
2024/04/03 04:11:03;;;;;;;16.05;2.80;;;;;;;9.81;100.00;99143.47;5043366;28;20055;-74
2024/04/03 04:13:28;;;;;;;19.05;2.33;;;;;;;9.80;100.00;99136.28;5077496;28;20664;-75
2024/04/03 04:15:55;;;;;;;14.02;2.38;;;;;;;9.83;100.00;99138.41;5026680;28;20028;-75
2024/04/03 04:18:21;;;;;;;14.88;2.15;;;;;;;9.82;100.00;99139.56;5026273;28;20037;-75
2024/04/03 04:20:56;;;;;;;11.75;2.05;;;;;;;9.81;100.00;99143.47;5026702;28;20389;-74
2024/04/03 04:23:24;;;;;;;14.57;2.15;;;;;;;9.80;100.00;99134.31;5040020;28;20059;-75
2024/04/03 04:25:55;;;;;;;12.82;2.53;;;;;;;9.80;100.00;99137.09;5050913;28;20071;-74
2024/04/03 04:28:24;;;;;;;11.07;2.15;;;;;;;9.82;100.00;99145.09;5026316;28;20094;-75
2024/04/03 04:31:16;;;;;;;21.80;3.28;;;;;;;9.84;100.00;99142.81;5042384;28;20119;-75
2024/04/03 04:33:42;;;;;;;15.77;2.30;;;;;;;9.84;100.00;99138.09;5039001;28;20029;-75
2024/04/03 04:36:07;;;;;;;26.55;3.38;;;;;;;9.84;100.00;99137.28;5042793;28;20056;-74
2024/04/03 04:38:33;;;;;;;18.27;4.30;;;;;;;9.85;100.00;99147.22;5043422;28;20041;-75
2024/04/03 04:40:59;;;;;;;30.10;4.53;;;;;;;9.85;100.00;99127.81;5026231;28;20044;-75
2024/04/03 04:43:27;;;;;;;25.48;4.30;;;;;;;9.86;100.00;99137.75;5039482;28;20040;-75
2024/04/03 04:46:02;;;;;;;23.10;4.43;;;;;;;9.82;100.00;99139.56;5059594;28;20033;-75
2024/04/03 04:48:29;;;;;;;19.02;5.15;;;;;;;9.84;100.00;99129.78;5083881;28;20032;-74
2024/04/03 04:50:56;;;;;;;26.63;4.93;;;;;;;9.87;100.00;99131.09;5042357;28;20035;-75
2024/04/03 04:53:22;;;;;;;22.30;4.30;;;;;;;9.88;100.00;99132.72;5041799;28;20403;-75
2024/04/03 04:55:55;;;;;;;24.85;4.40;;;;;;;9.88;100.00;99132.72;5064458;28;20035;-75
2024/04/03 04:58:20;;;;;;;;;;;;;;;9.88;100.00;99143.00;5020771;28;20036;-75
2024/04/03 05:00:46;;;;;;;27.63;5.55;;;;;;;9.89;100.00;99145.47;5058800;28;19908;-74
2024/04/03 05:03:11;;;;;;;28.10;4.53;;;;;;;9.91;100.00;99153.44;5022260;28;20049;-75
2024/04/03 05:05:37;;;;;;;28.02;5.38;;;;;;;9.92;100.00;99161.44;5042043;28;20048;-75
2024/04/03 05:08:03;;;;;;;31.35;4.55;;;;;;;9.91;100.00;99157.03;5041983;28;20536;-75
2024/04/03 05:10:30;;;;;;;38.20;5.55;;;;;;;9.92;100.00;99161.44;5059230;28;20485;-75
2024/04/03 05:12:55;;;;;;;33.47;6.45;;;;;;;9.91;100.00;99153.44;5025586;28;20029;-75
2024/04/03 05:15:22;;;;;;;25.38;4.53;;;;;;;9.94;100.00;99153.59;5075522;28;20045;-74
2024/04/03 05:17:48;;;;;;;37.22;6.63;;;;;;;9.95;100.00;99158.03;5058523;28;20450;-75
2024/04/03 05:20:14;;;;;;;25.48;5.15;;;;;;;9.94;100.00;99156.38;5058359;28;20037;-75
2024/04/03 05:22:39;;;;;;;31.52;5.82;;;;;;;9.96;100.00;99159.66;5058336;28;20038;-75
2024/04/03 05:25:05;;;;;;;26.45;5.13;;;;;;;9.97;100.00;99164.06;5076159;28;20546;-75
2024/04/03 05:27:32;;;;;;;37.40;5.25;;;;;;;9.99;100.00;99166.50;5076445;28;20119;-75
2024/04/03 05:29:57;;;;;;;30.27;5.40;;;;;;;9.98;100.00;99165.69;5024967;28;20041;-74
2024/04/03 05:32:22;;;;;;;31.20;5.00;;;;;;;10.01;100.00;99164.22;5008798;28;20404;-75
2024/04/03 05:34:48;;;;;;;36.78;5.85;;;;;;;10.02;100.00;99172.22;5041587;28;20029;-74
2024/04/03 05:37:13;;;;;;;46.08;7.60;;;;;;;10.03;100.00;99164.75;5071046;28;20032;-75
2024/04/03 05:39:39;;;;;;;40.08;6.53;;;;;;;10.05;100.00;99171.56;5040891;28;20036;-75
2024/04/03 05:42:05;;;;;;;39.53;6.25;;;;;;;10.06;100.00;99164.91;5024969;28;20036;-75
2024/04/03 05:44:30;;;;;;;43.20;7.40;;;;;;;10.08;100.00;99170.09;5040931;28;20060;-75
2024/04/03 05:46:56;;;;;;;41.05;5.95;;;;;;;10.10;100.00;99164.25;5041274;28;20047;-75
2024/04/03 05:49:21;;;;;;;44.22;7.15;;;;;;;10.11;100.00;99169.47;5038262;28;20083;-75
2024/04/03 05:51:46;;;;;;;36.75;6.72;;;;;;;10.14;100.00;99162.44;5025158;28;20496;-75
2024/04/03 05:54:12;;;;;;;41.20;6.60;;;;;;;10.18;100.00;99171.78;5021863;28;20033;-75
2024/04/03 05:56:38;;;;;;;33.40;5.78;;;;;;;10.18;100.00;99167.03;5038260;28;20036;-75
2024/04/03 05:59:03;;;;;;;37.47;6.20;;;;;;;10.19;100.00;99156.75;5057473;28;20120;-75
2024/04/03 06:01:29;;;;;;;40.45;6.18;;;;;;;10.21;100.00;99174.72;5022534;28;20043;-75
2024/04/03 06:03:55;;;;;;;42.08;6.75;;;;;;;10.23;100.00;99171.63;5035725;28;20066;-75
2024/04/03 06:06:21;;;;;;;52.70;6.72;;;;;;;10.24;100.00;99173.25;5056672;28;20032;-75
2024/04/03 06:08:46;;;;;;;36.78;6.78;;;;;;;10.27;100.00;99173.44;5024824;28;20033;-75
2024/04/03 06:11:12;;;;;;;42.33;6.78;;;;;;;10.29;100.00;99179.47;5058099;28;20037;-75
2024/04/03 06:13:37;;;;;;;36.38;6.15;;;;;;;10.33;100.00;99189.94;5040285;28;20032;-74
2024/04/03 06:16:03;;;;;;;39.40;5.97;;;;;;;10.34;100.00;99189.63;5043513;28;20028;-74
2024/04/03 06:18:28;;;;;;;40.42;6.82;;;;;;;10.35;100.00;99185.69;5051688;28;20033;-74
2024/04/03 06:20:54;;;;;;;41.30;6.72;;;;;;;10.37;100.00;99194.53;5075039;28;20036;-74
2024/04/03 06:23:19;;;;;;;43.85;6.78;;;;;;;10.39;100.00;99196.94;5040224;28;20409;-75
2024/04/03 06:25:45;;;;;;;36.65;6.20;;;;;;;10.41;100.00;99205.78;5038995;28;20032;-75
2024/04/03 06:28:10;;;;;;;34.67;5.38;;;;;;;10.42;100.00;99219.34;5069196;28;20393;-75
2024/04/03 06:30:36;;;;;;;31.77;6.18;;;;;;;10.44;100.00;99210.69;5027520;28;20041;-75
2024/04/03 06:33:01;;;;;;;39.35;5.80;;;;;;;10.47;100.00;99226.69;5048260;28;20048;-75
2024/04/03 06:35:27;;;;;;;39.17;5.35;;;;;;;10.47;100.00;99223.91;5023531;28;20040;-74
2024/04/03 06:37:53;;;;;;;33.22;6.32;;;;;;;10.49;100.00;99221.63;5029290;28;20037;-74
2024/04/03 06:40:19;;;;;;;30.23;5.65;;;;;;;10.51;100.00;99236.81;5032722;28;20033;-75
2024/04/03 06:42:44;;;;;;;39.45;6.68;;;;;;;10.54;100.00;99227.03;5050411;28;20037;-75
2024/04/03 06:45:10;;;;;;;38.45;6.75;;;;;;;10.58;100.00;99232.72;5048447;28;20043;-74
2024/04/03 06:47:36;;;;;;;36.25;5.95;;;;;;;10.57;100.00;99231.13;5069731;28;20158;-75
2024/04/03 06:50:02;;;;;;;34.25;5.65;;;;;;;10.61;100.00;99237.63;5065907;28;20063;-75
2024/04/03 06:52:28;;;;;;;35.00;6.28;;;;;;;10.59;100.00;99239.94;5067972;28;20052;-75
2024/04/03 06:54:56;;;;;;;29.73;5.72;;;;;;;10.63;100.00;99238.13;5051699;28;20047;-74
2024/04/03 06:57:22;;;;;;;35.30;6.07;;;;;;;10.67;100.00;99244.66;5037871;28;20065;-75
2024/04/03 06:59:47;;;;;;;28.67;5.40;;;;;;;10.67;100.00;99251.06;5023400;28;20170;-75
2024/04/03 07:02:13;;;;;;;30.30;6.00;;;;;;;10.67;100.00;99250.22;5000772;28;20044;-75
2024/04/03 07:04:38;;;;;;;28.73;4.88;;;;;;;10.73;100.00;99251.72;5035605;28;20045;-75
2024/04/03 07:07:05;;;;;;;31.60;5.45;;;;;;;10.74;100.00;99253.34;5017727;28;20041;-75
2024/04/03 07:09:30;;;;;;;29.60;5.00;;;;;;;10.76;100.00;99258.56;5049298;28;20168;-75
2024/04/03 07:11:56;;;;;;;27.52;4.88;;;;;;;10.78;100.00;99259.88;5050591;28;20045;-75
2024/04/03 07:14:22;;;;;;;25.58;4.10;;;;;;;10.82;100.00;99266.41;5035284;28;20036;-75
2024/04/03 07:16:47;;;;;;;37.90;4.63;;;;;;;10.84;100.00;99269.69;5046719;28;20049;-75
2024/04/03 07:19:13;;;;;;;26.75;4.43;;;;;;;10.89;100.00;99261.19;5020217;28;20033;-75
2024/04/03 07:21:41;;;;;;;18.75;3.80;;;;;;;10.90;100.00;99268.38;5008044;28;20063;-75
2024/04/03 07:24:09;;;;;;;22.50;4.22;;;;;;;10.95;100.00;99271.00;5041028;28;20104;-75
2024/04/03 07:26:35;;;;;;;23.52;4.55;;;;;;;10.98;100.00;99274.25;5012541;28;20045;-75
2024/04/03 07:29:00;;;;;;;30.58;4.47;;;;;;;11.03;100.00;99276.88;5013221;28;20508;-75
2024/04/03 07:31:26;;;;;;;25.38;4.43;;;;;;;11.04;100.00;99282.09;5039427;28;20546;-75
2024/04/03 07:33:53;;;;;;;25.02;4.15;;;;;;;11.08;100.00;99285.03;5040073;28;20041;-75
2024/04/03 07:36:19;;;;;;;23.75;3.97;;;;;;;11.10;100.00;99291.91;5053341;28;20497;-75
2024/04/03 07:38:44;;;;;;;26.40;3.53;;;;;;;11.14;100.00;99295.69;5021919;28;20060;-75
2024/04/03 07:41:10;;;;;;;21.42;3.80;;;;;;;11.18;100.00;99304.16;5022301;28;20049;-75
2024/04/03 07:43:35;;;;;;;26.65;4.45;;;;;;;11.24;100.00;99308.41;5020753;28;20036;-74
2024/04/03 07:46:01;;;;;;;19.83;3.60;;;;;;;11.28;100.00;99305.78;5023005;28;20514;-74
2024/04/03 07:48:26;;;;;;;23.08;3.50;;;;;;;11.35;100.00;99312.50;5023629;28;20037;-75
2024/04/03 07:51:00;;;;;;;18.33;3.63;;;;;;;11.43;100.00;99323.94;5062330;28;20043;-75
2024/04/03 07:53:25;;;;;;;22.75;3.10;;;;;;;11.50;100.00;99318.69;5020833;28;20496;-75
2024/04/03 07:55:51;;;;;;;19.90;3.30;;;;;;;11.54;100.00;99334.38;5027812;28;20055;-75
2024/04/03 07:58:16;;;;;;;21.40;3.90;;;;;;;11.59;100.00;99328.66;5020295;28;20045;-75
2024/04/03 08:00:42;;;;;;;15.30;2.95;;;;;;;11.63;100.00;99335.19;5032016;28;20049;-75
2024/04/03 08:03:08;;;;;;;23.55;3.28;;;;;;;11.67;100.00;99331.75;5050392;28;20064;-75
2024/04/03 08:05:33;;;;;;;11.63;2.25;;;;;;;11.72;100.00;99337.94;5069944;28;20041;-75
2024/04/03 08:07:59;;;;;;;16.63;2.95;;;;;;;11.77;100.00;99346.13;5043347;28;20404;-75
2024/04/03 08:10:25;;;;;;;17.17;3.63;;;;;;;11.84;100.00;99340.88;5059165;28;20036;-75
2024/04/03 08:12:50;;;;;;;11.70;2.30;;;;;;;11.89;100.00;99350.22;5027580;28;20542;-75
2024/04/03 08:15:17;;;;;;;13.80;2.90;;;;;;;11.96;100.00;99340.22;5059913;28;20033;-75
2024/04/03 08:17:42;;;;;;;18.20;3.08;;;;;;;11.99;100.00;99353.47;5059087;28;20044;-75
2024/04/03 08:20:09;;;;;;;14.27;3.13;;;;;;;12.05;100.00;99345.75;5077709;28;20045;-75
2024/04/03 08:22:34;;;;;;;8.95;2.03;;;;;;;12.10;100.00;99342.78;5040037;28;20551;-75
2024/04/03 08:25:01;;;;;;;14.70;2.40;;;;;;;12.17;100.00;99356.19;5075663;28;20036;-75
2024/04/03 08:27:27;;;;;;;16.38;2.70;;;;;;;12.22;100.00;99356.00;5031678;28;20546;-74
2024/04/03 08:29:55;;;;;;;14.70;2.25;;;;;;;12.28;100.00;99365.81;5009412;28;20033;-75
2024/04/03 08:32:21;;;;;;;11.80;2.10;;;;;;;12.35;100.00;99373.66;5010573;28;20402;-75
2024/04/03 08:34:49;;;;;;;13.30;2.00;;;;;;;12.41;100.00;99378.69;5059436;28;20037;-74
2024/04/03 08:37:15;;;;;;;14.95;2.55;;;;;;;12.50;100.00;99379.47;5033176;28;20033;-75
2024/04/03 08:39:40;;;;;;;6.22;1.67;;;;;;;12.60;100.00;99397.78;5025987;28;20047;-75
2024/04/03 08:42:06;;;;;;;8.18;1.67;;;;;;;12.70;100.00;99388.22;5042597;28;20119;-75
2024/04/03 08:44:32;;;;;;;9.75;1.85;;;;;;;12.75;100.00;99390.81;5055253;28;20099;-74
2024/04/03 08:46:58;;;;;;;10.23;1.98;;;;;;;12.84;100.00;99405.56;5035549;28;20036;-74
2024/04/03 08:49:27;;;;;;;8.55;1.77;;;;;;;12.92;100.00;99401.06;5022932;28;20870;-74
2024/04/03 08:52:00;;;;;;;9.40;1.70;;;;;;;13.04;100.00;99405.91;5026371;28;20074;-74
2024/04/03 08:54:26;;;;;;;6.28;0.80;;;;;;;13.23;100.00;99416.59;5037618;28;20036;-74
2024/04/03 08:56:52;;;;;;;8.85;1.30;;;;;;;13.39;100.00;99421.28;5047267;28;20075;-74
2024/04/03 08:59:17;;;;;;;6.63;1.42;;;;;;;13.54;100.00;99432.97;5029657;28;20507;-74
2024/04/03 09:01:43;;;;;;;4.95;0.90;;;;;;;13.70;100.00;99441.56;5025410;28;20518;-74
2024/04/03 09:04:09;;;;;;;7.75;1.20;;;;;;;13.80;100.00;99441.97;5058846;28;20037;-74
2024/04/03 09:06:38;;;;;;;4.55;1.13;;;;;;;13.94;100.00;99454.81;5041838;28;20125;-74
2024/04/03 09:09:04;;;;;;;4.18;0.80;;;;;;;14.02;100.00;99474.28;5013930;28;20040;-74
2024/04/03 09:11:29;;;;;;;3.13;0.60;;;;;;;14.01;100.00;99469.84;5076247;28;20040;-75
2024/04/03 09:13:55;;;;;;;4.13;0.63;;;;;;;14.09;100.00;99477.31;5041374;28;20036;-75
2024/04/03 09:16:21;;;;;;;3.63;0.70;;;;;;;14.09;100.00;99487.66;5032947;28;20044;-74
2024/04/03 09:18:48;;;;;;;4.13;0.50;;;;;;;14.09;100.00;99488.47;5038671;28;20045;-74
2024/04/03 09:21:18;;;;;;;0.93;0.40;;;;;;;14.12;100.00;99497.34;5042246;28;20119;-75
2024/04/03 09:23:45;;;;;;;1.90;0.52;;;;;;;14.12;100.00;99511.28;5058657;28;20041;-75
2024/04/03 09:26:11;;;;;;;2.78;0.50;;;;;;;14.09;100.00;99524.78;5076176;28;20436;-75
2024/04/03 09:28:36;;;;;;;1.80;0.50;;;;;;;14.10;100.00;99528.41;5025738;28;20055;-75
2024/04/03 09:31:02;;;;;;;1.63;0.40;;;;;;;14.09;100.00;99527.56;5025048;28;20025;-74
2024/04/03 09:33:29;;;;;;;0.80;0.30;;;;;;;14.11;100.00;99534.81;5025961;28;20573;-75
2024/04/03 09:35:55;;;;;;;2.83;0.40;;;;;;;14.08;100.00;99537.13;5026721;28;20043;-75
2024/04/03 09:38:20;;;;;;;1.83;0.40;;;;;;;14.12;100.00;99530.84;5042115;28;20032;-75
2024/04/03 09:40:48;;;;;;;2.88;0.50;;;;;;;14.19;100.00;99534.72;5024663;28;20037;-75
2024/04/03 09:43:14;;;;;;;2.85;0.50;;;;;;;14.23;100.00;99532.88;5026126;28;20040;-75
2024/04/03 09:45:39;;;;;;;1.00;0.30;;;;;;;14.41;100.00;99538.31;5019910;28;20029;-75
2024/04/03 09:48:09;;;;;;;3.28;0.50;;;;;;;14.57;100.00;99541.28;5025247;28;20115;-75
2024/04/03 09:50:39;;;;;;;2.10;0.20;;;;;;;14.74;100.00;99543.94;5026002;28;20115;-75
2024/04/03 09:53:15;;;;;;;2.72;0.50;;;;;;;14.90;100.00;99539.28;5025906;28;20033;-74
2024/04/03 09:55:41;;;;;;;0.68;0.22;;;;;;;15.09;100.00;99537.91;5041397;28;20369;-75
2024/04/03 09:58:11;;;;;;;2.53;0.50;;;;;;;15.31;100.00;99547.84;5043532;28;20036;-74
2024/04/03 10:00:37;;;;;;;1.45;0.40;;;;;;;15.51;100.00;99548.88;5056167;28;20123;-74
2024/04/03 10:03:03;;;;;;;2.42;0.30;;;;;;;15.70;100.00;99549.13;5041116;28;20056;-74
2024/04/03 10:05:36;;;;;;;3.33;0.63;;;;;;;15.90;100.00;99557.72;5057884;28;20495;-74
2024/04/03 10:08:03;;;;;;;2.90;0.35;;;;;;;16.06;100.00;99558.63;5029762;28;20041;-75
2024/04/03 10:10:28;;;;;;;0.98;0.30;;;;;;;16.16;100.00;99572.16;5041983;28;20072;-75
2024/04/03 10:12:59;;;;;;;1.67;0.40;;;;;;;16.28;100.00;99576.91;5041543;28;20109;-74
2024/04/03 10:15:24;;;;;;;3.22;0.50;;;;;;;16.34;100.00;99577.47;5024793;28;20186;-75
2024/04/03 10:17:50;;;;;;;2.17;0.30;;;;;;;16.42;100.00;99579.31;5041037;28;20060;-75
2024/04/03 10:20:30;;;;;;;2.70;0.52;;;;;;;16.51;100.00;99569.56;5040615;28;20043;-74
2024/04/03 10:22:55;;;;;;;1.77;0.47;;;;;;;16.63;100.00;99579.09;5053055;28;20033;-74
2024/04/03 10:25:21;;;;;;;1.20;0.32;;;;;;;16.75;100.00;99581.84;5059997;28;20058;-74
2024/04/03 10:27:46;;;;;;;1.77;0.70;;;;;;;16.89;100.00;99596.28;5027651;28;20048;-74
2024/04/03 10:30:18;;;;;;;2.80;0.52;;;;;;;17.05;100.00;99589.88;5028820;28;20044;-74
2024/04/03 10:32:45;;;;;;;2.05;0.50;;;;;;;17.12;100.00;99593.69;5044884;28;20068;-74
2024/04/03 10:35:11;;;;;;;3.63;0.57;;;;;;;17.21;100.00;99599.13;5044868;28;20037;-75
2024/04/03 10:37:36;;;;;;;2.03;0.40;;;;;;;17.31;100.00;99600.59;5078837;28;20526;-75
2024/04/03 10:40:02;;;;;;;3.05;0.47;;;;;;;17.42;100.00;99610.09;5079616;28;20040;-75
2024/04/03 10:42:30;;;;;;;1.63;0.30;;;;;;;17.55;100.00;99596.78;5061225;28;20054;-74
2024/04/03 10:44:55;;;;;;;2.88;0.40;;;;;;;17.64;100.00;99601.03;5045306;28;20047;-74
2024/04/03 10:47:21;;;;;;;4.55;0.77;;;;;;;17.79;100.00;99612.63;5041729;28;20037;-75
2024/04/03 10:49:46;;;;;;;2.15;0.40;;;;;;;17.91;100.00;99620.94;5085304;28;20047;-74
2024/04/03 10:52:12;;;;;;;4.07;0.70;;;;;;;18.04;100.00;99624.47;5024810;28;20480;-75
2024/04/03 10:54:38;;;;;;;2.95;0.68;;;;;;;18.12;100.00;99631.88;5052890;28;20037;-74
2024/04/03 10:57:05;;;;;;;3.58;0.80;;;;;;;18.14;100.00;99626.72;5065736;28;20036;-75
2024/04/03 10:59:31;;;;;;;2.88;0.55;;;;;;;18.22;100.00;99641.72;5045297;28;20039;-75
2024/04/03 11:01:56;;;;;;;5.03;0.70;;;;;;;18.26;100.00;99631.38;5043350;28;20033;-75
2024/04/03 11:04:25;;;;;;;4.20;0.75;;;;;;;18.36;100.00;99638.41;5027714;28;20040;-75
2024/04/03 11:06:51;;;;;;;1.60;0.30;;;;;;;18.37;100.00;99638.06;5027835;28;20536;-75
2024/04/03 11:09:16;;;;;;;3.85;0.43;;;;;;;18.45;100.00;99642.66;5028231;28;20102;-75
2024/04/03 11:11:43;;;;;;;3.35;0.45;;;;;;;18.52;100.00;99653.25;5043259;28;20049;-75
2024/04/03 11:14:09;;;;;;;0.73;0.30;;;;;;;18.53;100.00;99647.25;5027766;28;20108;-75
2024/04/03 11:16:35;;;;;;;2.80;0.50;;;;;;;18.52;100.00;99648.41;5024529;28;20049;-75
2024/04/03 11:19:00;;;;;;;2.80;0.40;;;;;;;18.48;100.00;99657.97;5072575;28;20098;-75
2024/04/03 11:21:27;;;;;;;1.88;0.35;;;;;;;18.49;100.00;99663.22;5076664;28;20040;-75
2024/04/03 11:23:52;;;;;;;3.40;0.40;;;;;;;18.47;100.00;99671.22;5077511;28;20045;-75
2024/04/03 11:26:17;;;;;;;2.45;0.45;;;;;;;18.44;100.00;99666.34;5060799;28;20044;-75